Time;durP1;ratioP1;P1;durP2;ratioP2;P2;SDS_P1;SDS_P2;PMS_P1;PMS_P2;Temp;Humidity;BMP_temperature;BMP_pressure;BME280_temperature;BME280_humidity;BME280_pressure;Samples;Min_cycle;Max_cycle;Signal;HPM_P1;HPM_P2
2023/08/22 00:00:17;;;;;;;5.88;5.32;;;27.20;62.90;;;;;;5000011;28;20214;-83
2023/08/22 00:02:45;;;;;;;6.10;5.50;;;27.30;63.10;;;;;;5000219;28;20200;-82
2023/08/22 00:05:13;;;;;;;5.97;5.38;;;27.20;63.00;;;;;;4982953;28;20200;-82
2023/08/22 00:07:40;;;;;;;5.60;5.15;;;27.20;63.10;;;;;;4998610;28;20204;-82
2023/08/22 00:10:08;;;;;;;6.20;5.60;;;27.20;63.10;;;;;;4998791;28;20203;-82
2023/08/22 00:12:35;;;;;;;6.28;5.78;;;27.20;63.20;;;;;;4998796;28;20262;-82
2023/08/22 00:15:04;;;;;;;5.43;4.93;;;27.20;63.20;;;;;;4998699;28;20203;-82
2023/08/22 00:17:31;;;;;;;5.75;5.20;;;27.20;63.30;;;;;;4998517;28;20266;-83
2023/08/22 00:19:58;;;;;;;6.80;5.80;;;27.20;63.40;;;;;;4998804;28;20200;-83
2023/08/22 00:22:26;;;;;;;6.40;5.63;;;27.20;63.40;;;;;;4998057;28;20671;-83
2023/08/22 00:24:54;;;;;;;6.05;5.45;;;27.10;63.30;;;;;;4998111;28;20196;-83
2023/08/22 00:27:20;;;;;;;5.65;5.15;;;27.10;63.30;;;;;;4997879;28;20192;-83
2023/08/22 00:29:48;;;;;;;5.40;4.90;;;27.10;63.30;;;;;;4997196;28;20231;-83
2023/08/22 00:32:15;;;;;;;5.43;5.00;;;27.10;63.30;;;;;;4997193;28;20698;-83
2023/08/22 00:34:42;;;;;;;5.75;5.25;;;27.10;64.20;;;;;;4997092;28;20290;-83
2023/08/22 00:37:09;;;;;;;5.55;5.03;;;27.10;63.40;;;;;;4997369;28;20223;-83
2023/08/22 00:39:38;;;;;;;5.97;5.45;;;27.10;63.50;;;;;;4997602;28;20200;-83
2023/08/22 00:42:05;;;;;;;5.75;5.20;;;27.10;63.40;;;;;;4997290;28;20216;-83
2023/08/22 00:44:32;;;;;;;5.93;5.43;;;27.10;63.50;;;;;;4997462;28;20200;-83
2023/08/22 00:46:59;;;;;;;5.70;5.20;;;27.10;63.50;;;;;;4998414;28;20562;-83
2023/08/22 00:49:27;;;;;;;6.00;5.00;;;27.10;63.60;;;;;;4997812;28;20200;-83
2023/08/22 00:51:54;;;;;;;6.03;5.15;;;27.10;63.60;;;;;;4998084;28;20220;-83
2023/08/22 00:54:21;;;;;;;5.60;5.18;;;27.10;63.60;;;;;;4997446;28;20220;-83
2023/08/22 00:56:49;;;;;;;5.70;5.20;;;27.10;63.60;;;;;;4997591;28;20261;-83
2023/08/22 00:59:16;;;;;;;5.70;5.30;;;27.10;63.60;;;;;;4997675;28;20211;-83
2023/08/22 01:01:43;;;;;;;5.68;5.20;;;27.10;63.70;;;;;;4981064;28;20673;-83
2023/08/22 01:04:10;;;;;;;5.68;5.18;;;27.10;63.60;;;;;;4996530;28;20200;-83
2023/08/22 01:06:40;;;;;;;6.03;5.53;;;27.10;63.60;;;;;;4996780;28;20196;-83
2023/08/22 01:09:10;;;;;;;5.43;4.93;;;27.10;63.60;;;;;;4996406;28;20196;-83
2023/08/22 01:11:38;;;;;;;5.88;5.03;;;27.10;63.50;;;;;;4996268;28;20220;-83
2023/08/22 01:14:09;;;;;;;5.90;5.40;;;27.00;63.50;;;;;;4996401;28;20207;-83
2023/08/22 01:16:36;;;;;;;5.68;5.18;;;27.00;63.40;;;;;;4997424;28;20209;-83
2023/08/22 01:19:04;;;;;;;6.10;5.53;;;27.00;63.50;;;;;;4996263;28;20204;-83
2023/08/22 01:21:33;;;;;;;5.88;5.38;;;27.00;63.50;;;;;;4996228;28;20310;-83
2023/08/22 01:24:02;;;;;;;5.68;5.18;;;27.00;63.50;;;;;;4996165;28;20557;-83
2023/08/22 01:26:29;;;;;;;5.53;5.13;;;27.00;63.50;;;;;;5014198;28;20580;-83
2023/08/22 01:28:58;;;;;;;5.60;5.13;;;27.00;63.50;;;;;;4996430;28;20200;-83
2023/08/22 01:31:29;;;;;;;5.78;5.30;;;27.00;63.50;;;;;;4996515;28;20270;-83
2023/08/22 01:33:59;;;;;;;6.05;5.55;;;27.00;63.50;;;;;;4996316;28;20572;-83
2023/08/22 01:36:26;;;;;;;5.85;5.35;;;27.00;63.60;;;;;;4995916;28;20212;-83
2023/08/22 01:38:53;;;;;;;6.25;5.15;;;26.90;63.40;;;;;;4996224;28;20202;-83
2023/08/22 01:41:22;;;;;;;5.63;5.13;;;27.00;63.60;;;;;;4996116;28;20398;-83
2023/08/22 01:43:50;;;;;;;6.05;5.45;;;26.90;63.50;;;;;;4996129;28;20207;-83
2023/08/22 01:46:18;;;;;;;6.22;5.72;;;26.90;63.50;;;;;;4996002;28;20204;-83
2023/08/22 01:48:45;;;;;;;5.88;5.38;;;26.90;63.50;;;;;;4995886;28;20349;-83
2023/08/22 01:51:12;;;;;;;6.15;5.55;;;26.90;63.50;;;;;;4995859;28;20231;-83
2023/08/22 01:53:39;;;;;;;5.68;5.28;;;26.90;63.50;;;;;;4995927;28;20200;-83
2023/08/22 01:56:06;;;;;;;5.80;5.30;;;26.90;63.60;;;;;;4997438;28;20208;-83
2023/08/22 01:58:34;;;;;;;5.90;5.30;;;26.90;63.60;;;;;;4999366;28;20200;-84
2023/08/22 02:01:08;;;;;;;5.57;5.07;;;26.90;63.50;;;;;;4999243;28;20227;-83
2023/08/22 02:03:35;;;;;;;5.90;5.40;;;26.80;63.50;;;;;;4999218;28;20270;-83
2023/08/22 02:06:03;;;;;;;5.43;4.90;;;26.80;63.50;;;;;;4999058;28;20195;-83
2023/08/22 02:08:30;;;;;;;5.78;5.35;;;26.90;63.60;;;;;;5000647;28;20557;-83
2023/08/22 02:10:57;;;;;;;5.43;4.93;;;26.80;63.50;;;;;;4999313;28;20220;-83
2023/08/22 02:13:24;;;;;;;5.85;5.18;;;26.90;63.60;;;;;;4999276;28;20192;-83
2023/08/22 02:15:54;;;;;;;5.60;5.10;;;26.90;63.70;;;;;;4999198;28;20291;-83
2023/08/22 02:18:20;;;;;;;5.90;5.40;;;26.80;63.70;;;;;;4999607;28;20216;-83
2023/08/22 02:20:52;;;;;;;5.72;5.22;;;26.80;63.60;;;;;;4999011;28;20223;-83
2023/08/22 02:23:19;;;;;;;6.05;5.00;;;26.80;63.70;;;;;;4999326;28;20279;-83
2023/08/22 02:25:47;;;;;;;5.70;5.20;;;26.80;63.70;;;;;;4999755;28;20196;-83
2023/08/22 02:28:14;;;;;;;5.45;5.05;;;26.80;63.70;;;;;;4999955;28;20188;-83
2023/08/22 02:30:41;;;;;;;5.28;4.88;;;26.70;63.60;;;;;;4999700;28;20553;-83
2023/08/22 02:33:10;;;;;;;5.60;5.10;;;26.80;63.70;;;;;;4983678;28;20196;-83
2023/08/22 02:35:37;;;;;;;5.43;4.93;;;26.70;63.70;;;;;;4999557;28;20200;-83
2023/08/22 02:38:04;;;;;;;6.35;5.32;;;26.70;63.70;;;;;;4998689;28;20216;-83
2023/08/22 02:40:33;;;;;;;5.75;5.13;;;26.70;63.70;;;;;;4998725;28;20243;-83
2023/08/22 02:43:00;;;;;;;5.78;5.28;;;26.70;63.70;;;;;;4998682;28;20227;-83
2023/08/22 02:45:29;;;;;;;5.88;5.28;;;26.70;63.70;;;;;;4998822;28;20204;-83
2023/08/22 02:47:57;;;;;;;5.68;5.18;;;26.70;63.70;;;;;;4998716;28;20628;-83
2023/08/22 02:50:25;;;;;;;5.40;4.90;;;26.70;63.80;;;;;;4999102;28;20223;-83
2023/08/22 02:52:52;;;;;;;6.00;5.50;;;26.70;63.80;;;;;;4998499;28;20210;-83
2023/08/22 02:55:19;;;;;;;5.88;5.38;;;26.70;63.80;;;;;;4999545;28;20250;-83
2023/08/22 02:57:47;;;;;;;5.88;5.45;;;26.70;63.80;;;;;;4998498;28;20235;-83
2023/08/22 03:00:14;;;;;;;6.35;5.32;;;26.70;63.90;;;;;;4998715;28;20239;-83
2023/08/22 03:02:42;;;;;;;5.30;4.80;;;26.70;63.90;;;;;;4998345;28;20192;-83
2023/08/22 03:05:11;;;;;;;5.90;5.40;;;26.60;63.70;;;;;;4998308;28;20262;-83
2023/08/22 03:07:40;;;;;;;5.32;4.90;;;26.70;63.70;;;;;;4997147;28;20623;-83
2023/08/22 03:10:11;;;;;;;5.90;5.40;;;26.60;63.40;;;;;;4983169;28;20192;-83
2023/08/22 03:12:38;;;;;;;6.00;5.50;;;26.60;63.30;;;;;;4998900;28;20194;-83
2023/08/22 03:15:07;;;;;;;5.95;5.13;;;26.70;63.40;;;;;;4998218;28;20215;-83
2023/08/22 03:17:38;;;;;;;6.00;5.38;;;26.70;63.50;;;;;;4998420;28;20215;-83
2023/08/22 03:20:07;;;;;;;5.78;5.22;;;26.70;63.40;;;;;;4998565;28;20205;-83
2023/08/22 03:22:34;;;;;;;5.53;5.03;;;26.70;63.30;;;;;;4998225;28;20271;-83
2023/08/22 03:25:04;;;;;;;5.38;4.88;;;26.70;63.30;;;;;;4998007;28;20224;-83
2023/08/22 03:27:33;;;;;;;5.40;4.90;;;26.70;63.10;;;;;;4998213;28;20204;-83
2023/08/22 03:30:01;;;;;;;5.55;5.10;;;26.80;62.90;;;;;;4997722;28;20203;-83
2023/08/22 03:32:31;;;;;;;5.18;4.78;;;26.80;62.80;;;;;;4998413;28;20192;-83
2023/08/22 03:35:00;;;;;;;5.40;5.00;;;26.80;62.60;;;;;;4998194;28;20196;-83
2023/08/22 03:37:28;;;;;;;6.10;5.57;;;26.90;62.60;;;;;;4997782;28;20212;-83
2023/08/22 03:39:56;;;;;;;5.40;5.00;;;26.90;62.50;;;;;;4997823;28;20552;-83
2023/08/22 03:42:25;;;;;;;6.50;5.55;;;26.90;62.50;;;;;;4997899;28;20200;-83
2023/08/22 03:44:56;;;;;;;5.68;4.90;;;26.90;62.30;;;;;;5123733;22;20188;-85
2023/08/22 03:47:23;;;;;;;5.32;4.93;;;26.90;62.20;;;;;;5022201;28;20179;-84
2023/08/22 03:49:51;;;;;;;6.15;5.20;;;26.90;62.10;;;;;;5021091;28;20184;-83
2023/08/22 03:52:18;;;;;;;5.70;5.15;;;27.00;62.10;;;;;;4997859;28;20250;-84
2023/08/22 03:54:46;;;;;;;5.57;5.07;;;27.00;62.10;;;;;;4997845;28;20573;-84
2023/08/22 03:57:13;;;;;;;5.80;5.20;;;27.00;62.00;;;;;;4997516;28;20295;-84
2023/08/22 03:59:43;;;;;;;5.40;4.90;;;27.00;62.10;;;;;;4997748;28;20249;-84
2023/08/22 04:02:10;;;;;;;5.65;5.15;;;26.90;62.10;;;;;;4981404;28;20272;-84
2023/08/22 04:04:38;;;;;;;5.22;4.72;;;26.90;62.00;;;;;;4997494;28;20209;-84
2023/08/22 04:07:06;;;;;;;5.65;5.15;;;26.90;62.00;;;;;;4997924;28;20184;-84
2023/08/22 04:09:33;;;;;;;5.30;4.80;;;26.90;62.10;;;;;;4997877;28;20279;-83
2023/08/22 04:12:00;;;;;;;6.32;4.93;;;26.90;62.10;;;;;;4997751;28;20582;-83
2023/08/22 04:14:27;;;;;;;5.35;4.93;;;26.90;62.10;;;;;;4997653;28;20226;-83
2023/08/22 04:16:56;;;;;;;5.40;5.00;;;26.90;62.10;;;;;;4997798;28;20200;-83
2023/08/22 04:19:24;;;;;;;5.35;4.78;;;26.80;62.00;;;;;;4997902;28;20200;-83
2023/08/22 04:21:52;;;;;;;5.35;4.90;;;26.90;62.20;;;;;;5005086;28;20246;-83
2023/08/22 04:24:19;;;;;;;5.78;5.28;;;26.80;62.20;;;;;;5016756;28;20192;-83
2023/08/22 04:27:07;;;;;;;5.35;4.93;;;26.80;62.20;;;;;;5033900;28;20223;-85
2023/08/22 04:29:34;;;;;;;5.80;5.22;;;26.80;62.20;;;;;;5016388;28;20200;-84
2023/08/22 04:32:03;;;;;;;5.55;5.05;;;26.80;62.30;;;;;;5005015;28;20216;-85
2023/08/22 04:34:31;;;;;;;5.38;4.95;;;26.80;62.30;;;;;;5003480;28;20197;-84
2023/08/22 04:37:00;;;;;;;5.53;5.03;;;26.80;62.40;;;;;;5003178;28;20631;-84
2023/08/22 04:39:27;;;;;;;5.82;5.32;;;26.70;62.30;;;;;;5002974;28;20199;-84
2023/08/22 04:42:05;;;;;;;5.55;5.07;;;26.70;62.30;;;;;;5002824;28;20299;-84
2023/08/22 04:44:51;;;;;;;6.30;5.70;;;26.70;62.40;;;;;;5002022;28;20215;-84
2023/08/22 04:47:19;;;;;;;6.00;5.45;;;26.70;62.50;;;;;;5002227;28;20196;-84
2023/08/22 04:49:46;;;;;;;5.13;4.72;;;26.70;62.50;;;;;;5002140;28;20204;-84
2023/08/22 04:52:14;;;;;;;6.20;5.60;;;26.70;62.50;;;;;;5001962;28;20216;-84
2023/08/22 04:54:42;;;;;;;6.38;5.80;;;26.70;62.50;;;;;;4985427;28;20740;-84
2023/08/22 04:57:09;;;;;;;6.07;5.50;;;26.70;62.40;;;;;;5000911;28;20207;-84
2023/08/22 04:59:36;;;;;;;5.80;5.35;;;26.70;62.50;;;;;;5001570;28;20263;-84
2023/08/22 05:02:05;;;;;;;5.45;4.93;;;26.70;62.50;;;;;;5000574;28;20243;-84
2023/08/22 05:04:33;;;;;;;6.05;5.55;;;26.60;62.40;;;;;;5001079;28;20200;-84
2023/08/22 05:07:00;;;;;;;6.25;5.68;;;26.70;63.30;;;;;;4984096;28;20200;-84
2023/08/22 05:09:28;;;;;;;6.43;5.72;;;26.70;62.50;;;;;;4999414;28;20590;-84
2023/08/22 05:11:55;;;;;;;5.97;5.47;;;26.70;62.50;;;;;;4998970;28;20567;-84
2023/08/22 05:14:23;;;;;;;5.80;5.22;;;26.70;62.50;;;;;;4981853;28;20211;-83
2023/08/22 05:16:51;;;;;;;5.80;5.30;;;26.60;63.20;;;;;;4996822;28;20208;-83
2023/08/22 05:19:18;;;;;;;5.97;5.47;;;26.70;62.40;;;;;;4980919;28;20314;-83
2023/08/22 05:21:46;;;;;;;6.20;5.60;;;26.70;62.30;;;;;;4996785;28;20216;-83
2023/08/22 05:24:14;;;;;;;6.60;6.00;;;26.70;62.20;;;;;;4997230;28;20199;-83
2023/08/22 05:26:42;;;;;;;5.47;4.97;;;26.80;62.30;;;;;;4980970;28;20247;-83
2023/08/22 05:29:09;;;;;;;6.03;5.53;;;26.80;62.30;;;;;;4997147;28;20200;-83
2023/08/22 05:31:35;;;;;;;6.20;5.60;;;26.80;62.20;;;;;;4999104;28;20219;-83
2023/08/22 05:34:03;;;;;;;6.07;5.57;;;26.80;61.90;;;;;;5000119;28;20195;-83
2023/08/22 05:36:31;;;;;;;5.55;5.15;;;26.90;61.70;;;;;;5000676;28;20196;-83
2023/08/22 05:39:00;;;;;;;5.68;5.18;;;26.90;61.50;;;;;;5000804;28;20319;-83
2023/08/22 05:41:28;;;;;;;5.93;5.43;;;27.00;61.40;;;;;;5000242;28;20298;-83
2023/08/22 05:43:56;;;;;;;6.35;5.75;;;27.00;61.10;;;;;;4984557;28;20203;-83
2023/08/22 05:46:24;;;;;;;6.32;5.72;;;27.10;60.80;;;;;;5000420;28;20299;-83
2023/08/22 05:48:50;;;;;;;6.05;5.32;;;27.20;60.40;;;;;;4984102;28;20197;-83
2023/08/22 05:51:18;;;;;;;5.90;5.32;;;27.30;59.90;;;;;;5000374;28;20266;-83
2023/08/22 05:53:45;;;;;;;5.82;5.32;;;27.50;59.70;;;;;;4984156;28;20200;-83
2023/08/22 05:56:13;;;;;;;5.82;5.32;;;27.60;59.30;;;;;;4999931;28;20291;-83
2023/08/22 05:58:40;;;;;;;5.90;5.35;;;27.80;58.90;;;;;;4999956;28;20239;-83
2023/08/22 06:01:09;;;;;;;5.65;5.22;;;27.90;58.60;;;;;;4983757;28;20216;-83
2023/08/22 06:03:36;;;;;;;5.63;5.22;;;28.00;58.40;;;;;;5000165;28;20211;-83
2023/08/22 06:06:05;;;;;;;5.38;4.93;;;28.10;58.10;;;;;;5000256;28;20640;-84
2023/08/22 06:08:32;;;;;;;5.93;5.40;;;28.30;57.80;;;;;;5001031;28;20192;-84
2023/08/22 06:10:59;;;;;;;6.00;5.50;;;28.40;57.50;;;;;;5000225;28;20227;-84
2023/08/22 06:13:28;;;;;;;5.97;5.20;;;28.50;57.30;;;;;;5004548;28;20282;-84
2023/08/22 06:15:56;;;;;;;5.93;5.07;;;28.60;57.00;;;;;;5002524;28;20224;-84
2023/08/22 06:18:24;;;;;;;5.82;5.22;;;28.70;56.70;;;;;;5000584;28;20296;-84
2023/08/22 06:20:51;;;;;;;5.85;5.35;;;28.80;56.50;;;;;;5000646;28;20219;-84
2023/08/22 06:23:19;;;;;;;6.05;5.50;;;28.90;56.20;;;;;;5008251;28;20208;-84
2023/08/22 06:25:47;;;;;;;5.68;5.18;;;29.00;56.00;;;;;;5007378;28;20206;-84
2023/08/22 06:28:16;;;;;;;5.63;5.22;;;29.10;55.80;;;;;;5005511;28;20243;-82
2023/08/22 06:30:44;;;;;;;5.70;5.20;;;29.20;55.70;;;;;;5007672;28;20224;-83
2023/08/22 06:33:11;;;;;;;5.43;4.93;;;29.30;55.40;;;;;;5004632;28;20192;-83
2023/08/22 06:35:38;;;;;;;6.20;5.70;;;29.40;55.20;;;;;;5004106;28;20204;-83
2023/08/22 06:38:05;;;;;;;5.90;5.18;;;29.40;55.00;;;;;;5001395;28;20223;-83
2023/08/22 06:40:35;;;;;;;5.88;5.38;;;29.50;54.90;;;;;;4999132;28;20250;-83
2023/08/22 06:43:03;;;;;;;5.40;4.90;;;29.60;54.70;;;;;;4998869;28;20586;-83
2023/08/22 06:45:32;;;;;;;5.70;5.22;;;29.70;54.50;;;;;;4999679;28;20210;-84
2023/08/22 06:48:01;;;;;;;5.97;5.47;;;29.70;54.30;;;;;;5000071;28;20592;-84
2023/08/22 06:50:28;;;;;;;5.57;5.18;;;29.80;54.30;;;;;;5000447;28;20248;-84
2023/08/22 06:52:55;;;;;;;5.72;5.22;;;29.80;54.10;;;;;;5000027;28;20192;-83
2023/08/22 06:55:22;;;;;;;5.72;5.22;;;29.90;54.00;;;;;;4983724;28;20548;-83
2023/08/22 06:57:50;;;;;;;6.00;5.50;;;30.00;54.00;;;;;;5001176;28;20228;-83
2023/08/22 07:00:18;;;;;;;6.13;5.63;;;30.00;53.80;;;;;;5000247;28;20207;-83
2023/08/22 07:02:46;;;;;;;5.85;5.15;;;30.10;53.70;;;;;;5000169;28;20573;-84
2023/08/22 07:05:15;;;;;;;6.82;5.45;;;30.10;53.60;;;;;;5000156;28;20192;-84
2023/08/22 07:07:42;;;;;;;5.65;5.15;;;30.20;53.60;;;;;;4999764;28;20196;-84
2023/08/22 07:10:10;;;;;;;6.07;5.57;;;30.20;53.50;;;;;;5000604;28;20254;-84
2023/08/22 07:12:38;;;;;;;5.80;5.32;;;30.30;53.40;;;;;;4999815;28;20200;-84
2023/08/22 07:15:06;;;;;;;6.00;5.50;;;30.30;53.20;;;;;;4999633;28;20203;-84
2023/08/22 07:17:35;;;;;;;5.78;5.38;;;30.40;53.10;;;;;;4999640;28;20207;-83
2023/08/22 07:20:02;;;;;;;6.13;5.63;;;30.40;53.00;;;;;;4999852;28;20222;-84
2023/08/22 07:22:30;;;;;;;6.28;5.68;;;30.50;53.10;;;;;;4999219;28;20216;-84
2023/08/22 07:24:57;;;;;;;5.55;5.15;;;30.50;53.10;;;;;;4999291;28;20674;-84
2023/08/22 07:27:24;;;;;;;6.22;5.65;;;30.60;53.00;;;;;;4999621;28;20246;-84
2023/08/22 07:29:51;;;;;;;6.30;5.80;;;30.60;52.80;;;;;;4999284;28;20192;-84
2023/08/22 07:32:20;;;;;;;5.90;5.40;;;30.70;52.70;;;;;;4999334;28;20698;-84
2023/08/22 07:34:48;;;;;;;5.85;5.35;;;30.70;52.50;;;;;;4999052;28;20197;-83
2023/08/22 07:37:15;;;;;;;5.53;5.13;;;30.70;52.30;;;;;;4998663;28;20195;-83
2023/08/22 07:39:44;;;;;;;5.43;5.03;;;30.80;52.30;;;;;;4998733;28;20216;-84
2023/08/22 07:42:11;;;;;;;6.30;5.22;;;30.90;52.20;;;;;;4999121;28;20212;-84
2023/08/22 07:44:38;;;;;;;5.80;5.15;;;30.90;52.00;;;;;;4998974;28;20254;-84
2023/08/22 07:47:05;;;;;;;5.82;5.32;;;31.00;51.90;;;;;;4998564;28;20200;-84
2023/08/22 07:49:33;;;;;;;5.75;5.15;;;31.00;51.80;;;;;;4998217;28;20255;-84
2023/08/22 07:52:00;;;;;;;5.13;4.68;;;31.00;51.70;;;;;;4998399;28;20563;-84
2023/08/22 07:54:27;;;;;;;5.60;5.20;;;31.10;51.60;;;;;;4997870;28;20303;-84
2023/08/22 07:56:55;;;;;;;5.38;4.88;;;31.10;51.50;;;;;;4999957;28;20242;-84
2023/08/22 07:59:22;;;;;;;5.28;4.88;;;31.10;51.40;;;;;;4999547;28;20713;-84
2023/08/22 08:01:50;;;;;;;5.22;4.82;;;31.20;51.40;;;;;;5024562;28;20212;-83
2023/08/22 08:04:17;;;;;;;5.28;4.88;;;31.20;51.30;;;;;;5022017;28;20172;-83
2023/08/22 08:06:45;;;;;;;5.28;4.85;;;31.20;51.30;;;;;;5022260;28;20173;-84
2023/08/22 08:09:14;;;;;;;5.70;5.10;;;31.20;51.40;;;;;;5017165;28;20635;-83
2023/08/22 08:11:41;;;;;;;5.72;4.70;;;31.30;51.40;;;;;;4998651;28;20224;-83
2023/08/22 08:14:11;;;;;;;5.35;4.90;;;31.30;51.30;;;;;;4999638;28;20209;-83
2023/08/22 08:16:38;;;;;;;4.95;4.55;;;31.40;51.30;;;;;;4999139;28;20218;-84
2023/08/22 08:19:05;;;;;;;5.30;4.85;;;31.40;51.20;;;;;;4998742;28;20226;-84
2023/08/22 08:21:32;;;;;;;5.63;5.15;;;31.40;51.10;;;;;;4998742;28;20695;-83
2023/08/22 08:23:59;;;;;;;5.93;5.32;;;31.40;51.00;;;;;;4998833;28;20224;-83
2023/08/22 08:26:26;;;;;;;5.05;4.65;;;31.40;51.00;;;;;;4998837;28;20254;-84
2023/08/22 08:28:53;;;;;;;4.95;4.55;;;31.50;51.00;;;;;;5000179;28;20547;-84
2023/08/22 08:31:21;;;;;;;5.13;4.72;;;31.50;50.90;;;;;;4998679;28;20226;-84
2023/08/22 08:33:49;;;;;;;5.30;4.82;;;31.50;50.90;;;;;;4999074;28;20576;-83
2023/08/22 08:36:16;;;;;;;5.03;4.63;;;31.50;50.80;;;;;;4999234;28;20200;-84
2023/08/22 08:38:43;;;;;;;5.93;5.43;;;31.50;50.80;;;;;;4999669;28;20211;-84
2023/08/22 08:41:10;;;;;;;5.25;4.85;;;31.60;50.90;;;;;;4997692;28;20223;-84
2023/08/22 08:43:37;;;;;;;4.82;4.40;;;31.60;50.80;;;;;;4997693;28;20651;-83
2023/08/22 08:46:04;;;;;;;5.07;4.68;;;31.50;50.70;;;;;;4997872;28;20214;-83
2023/08/22 08:48:33;;;;;;;5.25;4.85;;;31.60;50.70;;;;;;4998266;28;20199;-83
2023/08/22 08:51:00;;;;;;;5.05;4.55;;;31.60;50.70;;;;;;5015604;28;20222;-83
2023/08/22 08:53:28;;;;;;;5.05;4.60;;;31.60;50.70;;;;;;4998556;28;20207;-83
2023/08/22 08:55:55;;;;;;;5.38;4.97;;;31.60;50.70;;;;;;4983054;28;20203;-83
2023/08/22 08:58:23;;;;;;;5.10;4.70;;;31.60;50.60;;;;;;4999155;28;20295;-83
2023/08/22 09:00:50;;;;;;;5.18;4.68;;;31.70;50.60;;;;;;4999161;28;20351;-84
2023/08/22 09:03:17;;;;;;;5.45;5.03;;;31.70;50.60;;;;;;4999819;28;20210;-83
2023/08/22 09:05:46;;;;;;;4.68;4.20;;;31.70;50.60;;;;;;5002563;28;20254;-84
2023/08/22 09:08:17;;;;;;;4.93;4.53;;;31.70;50.60;;;;;;5003301;28;20261;-82
2023/08/22 09:10:47;;;;;;;5.13;4.70;;;31.80;50.60;;;;;;5002614;28;20242;-84
2023/08/22 09:13:14;;;;;;;5.00;4.60;;;31.80;50.50;;;;;;5002545;28;20196;-83
2023/08/22 09:15:42;;;;;;;5.28;4.50;;;31.80;50.50;;;;;;5002592;28;20196;-84
2023/08/22 09:18:13;;;;;;;4.82;4.43;;;31.80;50.40;;;;;;5020333;28;20200;-83
2023/08/22 09:20:45;;;;;;;5.22;4.78;;;31.80;50.50;;;;;;5002378;28;20224;-84
2023/08/22 09:23:23;;;;;;;4.47;4.18;;;31.80;50.40;;;;;;5002505;28;20275;-83
2023/08/22 09:25:51;;;;;;;4.65;4.35;;;31.80;50.40;;;;;;5002260;28;20247;-83
2023/08/22 09:28:18;;;;;;;4.80;4.47;;;31.80;50.30;;;;;;5001617;28;20191;-84
2023/08/22 09:30:49;;;;;;;4.90;4.50;;;31.80;50.30;;;;;;5001981;28;20216;-83
2023/08/22 09:33:16;;;;;;;4.80;4.40;;;31.80;50.30;;;;;;5001631;28;20200;-83
2023/08/22 09:35:43;;;;;;;4.43;4.07;;;31.90;50.40;;;;;;5000952;28;20200;-83
2023/08/22 09:38:11;;;;;;;5.05;4.25;;;31.90;50.30;;;;;;5001008;28;20204;-83
2023/08/22 09:40:50;;;;;;;4.70;4.30;;;31.90;50.40;;;;;;4985981;28;20278;-84
2023/08/22 09:43:19;;;;;;;4.72;4.32;;;31.90;50.40;;;;;;5001505;28;20255;-83
2023/08/22 09:45:46;;;;;;;4.60;4.30;;;31.90;50.30;;;;;;5040295;23;20239;-84
2023/08/22 09:48:15;;;;;;;4.65;4.28;;;31.90;50.40;;;;;;5000195;28;20297;-84
2023/08/22 09:50:43;;;;;;;4.63;4.22;;;31.90;50.30;;;;;;4999950;28;20216;-84
2023/08/22 09:53:10;;;;;;;4.53;4.22;;;31.90;50.30;;;;;;4999869;28;20188;-84
2023/08/22 09:55:37;;;;;;;4.38;4.07;;;31.90;50.40;;;;;;5000521;28;20643;-84
2023/08/22 09:58:06;;;;;;;4.72;4.32;;;31.90;50.40;;;;;;4999789;28;20198;-85
2023/08/22 10:00:34;;;;;;;4.30;4.00;;;31.90;50.40;;;;;;4999758;28;20323;-85
2023/08/22 10:03:01;;;;;;;4.20;3.90;;;31.90;50.40;;;;;;4999747;28;20670;-85
2023/08/22 10:05:28;;;;;;;4.85;4.45;;;31.90;50.50;;;;;;4999398;28;20236;-85
2023/08/22 10:07:55;;;;;;;4.40;4.10;;;31.80;50.40;;;;;;4999883;28;20200;-85
2023/08/22 10:10:23;;;;;;;4.50;4.10;;;31.80;50.50;;;;;;5017133;28;20216;-85
2023/08/22 10:12:50;;;;;;;4.40;4.03;;;31.80;50.50;;;;;;4999371;28;20214;-85
2023/08/22 10:15:18;;;;;;;4.82;4.43;;;31.80;50.50;;;;;;5017211;28;20243;-85
2023/08/22 10:17:46;;;;;;;4.80;4.50;;;31.80;50.50;;;;;;4998477;28;20196;-85
2023/08/22 10:20:15;;;;;;;4.32;4.03;;;31.80;50.60;;;;;;4983837;28;20224;-85
2023/08/22 10:22:43;;;;;;;4.63;4.22;;;31.80;50.70;;;;;;4999790;28;20227;-85
2023/08/22 10:25:10;;;;;;;4.35;4.05;;;31.80;50.70;;;;;;4999638;28;20206;-85
2023/08/22 10:27:42;;;;;;;4.40;4.10;;;31.80;50.80;;;;;;4999454;28;20571;-85
2023/08/22 10:30:21;;;;;;;4.10;3.80;;;31.80;50.80;;;;;;4999043;28;20303;-85
2023/08/22 10:33:04;;;;;;;4.38;4.07;;;31.70;50.90;;;;;;4999081;28;20232;-84
2023/08/22 10:35:31;;;;;;;4.68;4.28;;;31.70;51.00;;;;;;4999631;28;20200;-85
2023/08/22 10:37:58;;;;;;;4.22;3.92;;;31.60;51.10;;;;;;4999412;28;20227;-82
2023/08/22 10:40:27;;;;;;;4.45;4.15;;;31.60;51.20;;;;;;4998880;28;20235;-82
2023/08/22 10:43:04;;;;;;;4.20;3.90;;;31.50;51.30;;;;;;4999108;28;20287;-82
2023/08/22 10:45:49;;;;;;;4.13;3.83;;;31.40;51.50;;;;;;4999660;28;20349;-82
2023/08/22 10:48:17;;;;;;;4.45;4.15;;;31.40;51.70;;;;;;4998876;28;20184;-82
2023/08/22 10:50:45;;;;;;;4.25;3.95;;;31.30;51.80;;;;;;4998890;28;20291;-82
2023/08/22 10:53:16;;;;;;;4.63;4.22;;;31.30;52.00;;;;;;4999229;28;20228;-82
2023/08/22 10:55:43;;;;;;;4.22;3.90;;;31.20;52.00;;;;;;4999909;28;20193;-82
2023/08/22 10:58:36;;;;;;;4.50;4.20;;;31.20;52.10;;;;;;4998796;28;20204;-82
2023/08/22 11:04:08;;;;;;;4.60;4.30;;;31.10;52.30;;;;;;4998371;28;20200;-82
2023/08/22 11:06:35;;;;;;;4.35;4.05;;;31.10;52.40;;;;;;4998764;28;20196;-82
2023/08/22 11:09:03;;;;;;;4.03;3.72;;;31.10;52.50;;;;;;4998813;28;20204;-82
2023/08/22 11:11:30;;;;;;;4.60;4.28;;;31.10;52.50;;;;;;4999122;28;20266;-82
2023/08/22 11:13:59;;;;;;;4.45;4.15;;;31.10;52.60;;;;;;5000004;28;20276;-82
2023/08/22 11:16:27;;;;;;;4.15;3.85;;;31.00;52.60;;;;;;4999888;28;20615;-82
2023/08/22 11:18:54;;;;;;;4.57;4.28;;;31.00;52.60;;;;;;5000258;28;20292;-82
2023/08/22 11:21:21;;;;;;;4.40;4.10;;;31.00;52.80;;;;;;5000738;28;20216;-82
2023/08/22 11:23:49;;;;;;;4.32;4.03;;;31.00;52.80;;;;;;5000059;28;20200;-82
2023/08/22 11:26:21;;;;;;;4.50;4.10;;;30.90;52.80;;;;;;4999147;28;20200;-82
2023/08/22 11:28:48;;;;;;;4.35;4.05;;;30.90;53.00;;;;;;4999317;28;20192;-82
2023/08/22 11:31:17;;;;;;;4.53;4.22;;;30.90;53.00;;;;;;5002932;28;20216;-82
2023/08/22 11:33:56;;;;;;;4.40;4.10;;;30.90;53.10;;;;;;5002889;28;20204;-82
2023/08/22 11:36:23;;;;;;;4.22;3.92;;;30.90;53.10;;;;;;5002185;28;20200;-82
2023/08/22 11:38:50;;;;;;;4.20;3.90;;;30.90;53.20;;;;;;4998730;28;20250;-82
2023/08/22 11:41:19;;;;;;;4.32;4.03;;;30.80;53.20;;;;;;4998479;28;20327;-82
2023/08/22 11:43:48;;;;;;;4.45;4.15;;;30.80;53.30;;;;;;4999076;28;20196;-82
2023/08/22 11:46:15;;;;;;;4.20;3.90;;;30.80;53.30;;;;;;4998266;28;20701;-82
2023/08/22 11:48:53;;;;;;;4.22;3.92;;;30.80;53.30;;;;;;5151907;27;20561;-57
2023/08/22 11:51:20;;;;;;;4.35;3.95;;;30.70;53.30;;;;;;5130235;28;20242;-57
2023/08/22 11:53:48;;;;;;;3.90;3.60;;;30.80;53.40;;;;;;5131286;28;20274;-57
2023/08/22 11:56:16;;;;;;;4.18;3.88;;;30.80;53.40;;;;;;5129904;28;20196;-57
2023/08/22 11:58:44;;;;;;;3.95;3.65;;;30.70;53.40;;;;;;5131707;27;20180;-57
2023/08/22 12:01:12;;;;;;;4.05;3.75;;;30.70;53.40;;;;;;5129956;28;20244;-57
2023/08/22 12:03:42;;;;;;;4.30;4.00;;;30.70;53.80;;;;;;5131299;28;20199;-57
2023/08/22 12:06:15;;;;;;;3.80;3.55;;;30.70;53.70;;;;;;5129997;28;20215;-57
2023/08/22 12:08:43;;;;;;;4.30;4.00;;;30.70;53.70;;;;;;5131341;27;20243;-57
2023/08/22 12:11:23;;;;;;;4.20;3.90;;;30.70;53.90;;;;;;5131374;28;20184;-57
2023/08/22 12:13:50;;;;;;;4.00;3.70;;;30.60;53.90;;;;;;5131200;28;20181;-58
2023/08/22 12:16:17;;;;;;;4.43;4.13;;;30.60;53.90;;;;;;5132821;28;20298;-57
2023/08/22 12:18:45;;;;;;;4.20;3.90;;;30.60;54.60;;;;;;5129822;27;20525;-57
2023/08/22 12:21:14;;;;;;;4.28;3.97;;;30.60;54.00;;;;;;5132056;28;20192;-58
2023/08/22 12:23:43;;;;;;;4.20;3.90;;;30.60;54.10;;;;;;5132961;28;20199;-57
2023/08/22 12:26:09;;;;;;;4.40;4.10;;;30.60;54.20;;;;;;5131147;28;20191;-58
2023/08/22 12:28:37;;;;;;;4.13;3.83;;;30.50;54.20;;;;;;5129989;28;20212;-58
2023/08/22 12:31:04;;;;;;;3.97;3.67;;;30.50;54.20;;;;;;5130622;27;20207;-58
2023/08/22 12:33:32;;;;;;;4.00;3.70;;;30.50;54.20;;;;;;5129854;28;20192;-58
2023/08/22 12:35:59;;;;;;;3.75;3.45;;;30.50;54.30;;;;;;5129351;28;20235;-58
2023/08/22 12:38:28;;;;;;;4.13;3.80;;;30.50;54.30;;;;;;5092709;22;20241;-83
2023/08/22 12:40:57;;;;;;;3.90;3.67;;;30.50;54.40;;;;;;5066842;28;20260;-83
2023/08/22 12:43:24;;;;;;;3.85;3.55;;;30.50;54.40;;;;;;5050285;28;20650;-83
2023/08/22 12:45:51;;;;;;;4.38;4.07;;;30.40;54.30;;;;;;5050420;28;20306;-84
2023/08/22 12:48:18;;;;;;;3.88;3.58;;;30.50;54.40;;;;;;5050828;28;20280;-84
2023/08/22 12:50:46;;;;;;;4.05;3.75;;;30.50;54.50;;;;;;5035527;28;20226;-84
2023/08/22 12:53:13;;;;;;;4.10;3.80;;;30.50;54.50;;;;;;5051984;28;20198;-84
2023/08/22 12:55:42;;;;;;;4.22;3.92;;;30.40;54.50;;;;;;5056000;28;20207;-84